createdAt,value
2019-05-17T00:01:48.021Z,75.86
2019-05-17T00:04:19.505Z,76.01
2019-05-17T00:06:50.877Z,76.27
2019-05-17T00:09:22.175Z,76.24
2019-05-17T00:11:53.579Z,76.31
2019-05-17T00:14:26.994Z,76.32
2019-05-17T00:16:57.830Z,76.54
2019-05-17T00:19:29.273Z,76.74
2019-05-17T00:22:00.503Z,76.58
2019-05-17T00:24:31.870Z,77.03
2019-05-17T00:27:03.148Z,77.15
2019-05-17T00:29:37.002Z,77.36
2019-05-17T00:32:08.145Z,77.45
2019-05-17T00:34:40.576Z,77.49
2019-05-17T00:37:11.948Z,77.61
2019-05-17T00:39:43.256Z,77.71
2019-05-17T00:42:16.838Z,77.89
2019-05-17T00:44:47.683Z,77.88
2019-05-17T00:47:19.137Z,78.23
2019-05-17T00:49:50.514Z,78.32
2019-05-17T00:52:21.859Z,78.44
2019-05-17T00:54:53.277Z,78.40
2019-05-17T00:57:27.189Z,78.74
2019-05-17T00:59:57.755Z,78.74
2019-05-17T01:02:29.098Z,78.94
2019-05-17T01:05:00.458Z,79.06
2019-05-17T01:07:31.866Z,79.25
2019-05-17T01:10:03.297Z,79.19
2019-05-17T01:12:36.598Z,79.30
2019-05-17T01:15:08.813Z,79.36
2019-05-17T01:17:40.151Z,79.47
2019-05-17T01:20:12.073Z,79.39
2019-05-17T01:22:43.326Z,79.53
2019-05-17T01:25:17.153Z,79.34
2019-05-17T01:27:48.143Z,79.74
2019-05-17T01:30:19.750Z,79.96
2019-05-17T01:32:51.329Z,80.02
2019-05-17T01:35:22.650Z,79.91
2019-05-17T01:37:56.357Z,80.00
2019-05-17T01:40:26.806Z,79.99
2019-05-17T01:42:58.272Z,80.01
2019-05-17T01:45:29.604Z,80.06
2019-05-17T01:48:00.934Z,80.05
2019-05-17T01:50:32.227Z,79.86
2019-05-17T01:53:03.553Z,79.93
2019-05-17T01:55:37.189Z,79.65
2019-05-17T01:58:07.814Z,79.90
2019-05-17T02:00:39.212Z,79.61
2019-05-17T02:03:10.694Z,79.64
2019-05-17T02:05:42.082Z,80.13
2019-05-17T02:08:14.039Z,79.69
2019-05-17T02:10:46.610Z,79.39
2019-05-17T02:13:19.231Z,78.81
2019-05-17T02:15:50.476Z,78.16
2019-05-17T02:18:21.787Z,77.90
2019-05-17T02:20:53.174Z,77.06
2019-05-17T02:23:27.040Z,76.56
2019-05-17T02:25:59.727Z,76.60
2019-05-17T02:28:32.167Z,77.25
2019-05-17T02:31:03.796Z,77.56
2019-05-17T02:33:35.144Z,77.93
2019-05-17T02:36:06.466Z,78.12
2019-05-17T02:38:37.803Z,78.02
2019-05-17T02:41:09.119Z,77.48
2019-05-17T02:43:43.202Z,75.85
2019-05-17T02:46:13.774Z,73.61
2019-05-17T02:48:44.988Z,71.49
2019-05-17T02:51:16.432Z,72.13
2019-05-17T02:53:47.879Z,70.69
2019-05-17T02:56:19.329Z,71.29
2019-05-17T02:58:53.379Z,69.04
2019-05-17T03:01:24.281Z,66.79
2019-05-17T03:03:55.718Z,66.03
2019-05-17T03:06:27.158Z,64.72
2019-05-17T03:08:58.533Z,61.58
2019-05-17T03:11:33.000Z,63.49
2019-05-17T03:14:04.036Z,63.89
2019-05-17T03:16:35.661Z,63.15
2019-05-17T03:19:07.105Z,61.70
2019-05-17T03:21:38.544Z,61.38
2019-05-17T03:24:13.348Z,60.03
2019-05-17T03:26:43.236Z,61.60
2019-05-17T03:29:14.748Z,60.88
2019-05-17T03:31:53.561Z,62.34
2019-05-17T03:34:25.763Z,63.20
2019-05-17T03:36:56.265Z,62.50
2019-05-17T03:39:26.528Z,60.62
2019-05-17T03:41:58.131Z,59.52
2019-05-17T03:44:29.533Z,59.38
2019-05-17T03:47:02.415Z,60.73
2019-05-17T03:49:38.511Z,60.62
2019-05-17T03:52:07.743Z,61.54
2019-05-17T03:54:39.011Z,62.61
2019-05-17T03:57:13.249Z,62.64
2019-05-17T03:59:43.331Z,59.17
2019-05-17T04:02:14.776Z,59.67
2019-05-17T04:04:46.125Z,59.65
2019-05-17T04:07:17.576Z,60.37
2019-05-17T04:09:48.965Z,61.70
2019-05-17T04:12:23.185Z,60.48
2019-05-17T04:14:53.628Z,61.38
2019-05-17T04:17:25.139Z,61.38
2019-05-17T04:19:56.425Z,61.77
2019-05-17T04:22:28.257Z,63.94
2019-05-17T04:25:02.805Z,65.22
2019-05-17T04:27:33.306Z,64.11
2019-05-17T04:30:06.623Z,63.80
2019-05-17T04:32:37.098Z,65.18
2019-05-17T04:35:08.153Z,64.15
2019-05-17T04:37:39.683Z,64.15
2019-05-17T04:40:14.235Z,64.87
2019-05-17T04:42:44.869Z,66.37
2019-05-17T04:45:16.219Z,66.95
2019-05-17T04:47:47.655Z,66.18
2019-05-17T04:50:18.948Z,66.26
2019-05-17T04:52:53.321Z,66.33
2019-05-17T04:55:23.387Z,66.68
2019-05-17T04:57:54.970Z,67.59
2019-05-17T05:00:26.345Z,65.66
2019-05-17T05:02:58.823Z,65.52
2019-05-17T05:05:33.086Z,65.37
2019-05-17T05:08:03.946Z,66.55
2019-05-17T05:10:38.475Z,66.54
2019-05-17T05:13:08.308Z,65.64
2019-05-17T05:15:44.063Z,66.36
2019-05-17T05:18:14.157Z,66.22
2019-05-17T05:20:45.491Z,65.19
2019-05-17T05:23:16.793Z,65.62
2019-05-17T05:25:48.104Z,65.31
2019-05-17T05:28:22.360Z,65.77
2019-05-17T05:30:53.206Z,64.94
2019-05-17T05:33:24.429Z,64.94
2019-05-17T05:35:56.915Z,64.43
2019-05-17T05:38:28.119Z,64.44
2019-05-17T05:41:01.591Z,63.24
2019-05-17T05:43:32.909Z,63.33
2019-05-17T05:46:04.347Z,62.54
2019-05-17T05:48:35.578Z,63.79
2019-05-17T05:51:07.109Z,63.38
2019-05-17T05:53:38.619Z,61.63
2019-05-17T05:56:13.057Z,61.92
2019-05-17T05:58:42.993Z,62.90
2019-05-17T06:01:15.307Z,63.78
2019-05-17T06:03:46.622Z,61.99
2019-05-17T06:06:21.414Z,63.45
2019-05-17T06:08:52.260Z,62.72
2019-05-17T06:11:23.537Z,62.97
2019-05-17T06:13:54.841Z,63.64
2019-05-17T06:16:26.197Z,63.29
2019-05-17T06:18:57.615Z,63.08
2019-05-17T06:21:28.918Z,63.85
2019-05-17T06:24:02.406Z,63.68
2019-05-17T06:26:33.168Z,63.12
2019-05-17T06:29:04.497Z,62.73
2019-05-17T06:31:37.078Z,61.93
2019-05-17T06:34:08.679Z,61.60
2019-05-17T06:36:42.274Z,62.22
2019-05-17T06:39:13.132Z,60.99
2019-05-17T06:41:44.675Z,63.28
2019-05-17T06:44:16.018Z,61.84
2019-05-17T06:46:47.300Z,61.79
2019-05-17T06:49:18.620Z,62.35
2019-05-17T06:51:51.626Z,61.34
2019-05-17T06:54:23.052Z,60.91
2019-05-17T06:56:54.309Z,60.66
2019-05-17T06:59:25.751Z,60.31
2019-05-17T07:01:57.066Z,61.04
2019-05-17T07:04:29.975Z,60.89
2019-05-17T07:07:20.701Z,60.23
2019-05-17T07:09:52.227Z,59.08
2019-05-17T07:12:23.615Z,59.09
2019-05-17T07:14:55.712Z,59.40
2019-05-17T07:17:30.262Z,60.27
2019-05-17T07:20:00.931Z,59.86
2019-05-17T07:22:32.368Z,59.98
2019-05-17T07:25:05.120Z,59.98
2019-05-17T07:27:41.246Z,59.80
2019-05-17T07:30:10.930Z,59.45
2019-05-17T07:32:42.284Z,59.60
2019-05-17T07:35:13.926Z,59.52
2019-05-17T07:37:45.279Z,58.95
2019-05-17T07:40:16.873Z,58.57
2019-05-17T07:42:50.116Z,57.72
2019-05-17T07:45:20.757Z,58.01
2019-05-17T07:47:51.846Z,57.90
2019-05-17T07:50:23.331Z,56.59
2019-05-17T07:52:54.837Z,56.88
2019-05-17T07:55:26.239Z,57.46
2019-05-17T07:58:00.104Z,57.16
2019-05-17T08:00:30.574Z,57.06
2019-05-17T08:03:01.676Z,57.06
2019-05-17T08:05:33.074Z,55.92
2019-05-17T08:08:04.379Z,55.84
2019-05-17T08:10:35.840Z,56.69
2019-05-17T08:13:25.549Z,56.27
2019-05-17T08:15:45.091Z,55.70
2019-05-17T08:18:16.572Z,56.15
2019-05-17T08:20:50.008Z,55.73
2019-05-17T08:23:20.397Z,55.63
2019-05-17T08:25:55.685Z,56.66
2019-05-17T08:28:27.053Z,56.16
2019-05-17T08:30:56.822Z,55.89
2019-05-17T08:33:29.841Z,55.39
2019-05-17T08:36:01.936Z,55.43
2019-05-17T08:38:33.179Z,55.71
2019-05-17T08:41:04.561Z,56.81
2019-05-17T08:43:43.184Z,55.72
2019-05-17T08:46:10.545Z,54.69
2019-05-17T08:48:41.341Z,56.17
2019-05-17T08:51:12.563Z,55.08
2019-05-17T08:53:43.864Z,54.90
2019-05-17T08:56:15.127Z,54.04
2019-05-17T08:58:46.664Z,54.75
2019-05-17T09:01:19.628Z,54.00
2019-05-17T09:03:52.332Z,54.20
2019-05-17T09:06:23.903Z,53.74
2019-05-17T09:08:55.357Z,53.68
2019-05-17T09:11:27.001Z,54.25
2019-05-17T09:14:01.946Z,53.28
2019-05-17T09:16:31.479Z,53.91
2019-05-17T09:19:02.839Z,53.79
2019-05-17T09:21:34.253Z,54.17
2019-05-17T09:24:05.737Z,53.49
2019-05-17T09:26:39.743Z,53.50
2019-05-17T09:29:10.829Z,52.72
2019-05-17T09:31:43.368Z,52.32
2019-05-17T09:34:15.048Z,51.78
2019-05-17T09:36:49.582Z,52.95
2019-05-17T09:39:21.196Z,52.27
2019-05-17T09:41:52.523Z,50.76
2019-05-17T09:44:24.075Z,50.78
2019-05-17T09:46:55.464Z,50.93
2019-05-17T09:49:26.783Z,51.53
2019-05-17T09:52:00.152Z,51.84
2019-05-17T09:54:41.665Z,51.61
2019-05-17T09:57:04.354Z,51.33
2019-05-17T09:59:35.530Z,51.95
2019-05-17T10:02:09.445Z,51.78
2019-05-17T10:04:40.655Z,52.20
2019-05-17T10:07:12.007Z,51.55
2019-05-17T10:09:43.601Z,50.93
2019-05-17T10:12:14.947Z,50.45
2019-05-17T10:14:46.272Z,50.22
2019-05-17T10:17:17.625Z,50.16
2019-05-17T10:19:49.039Z,49.11
2019-05-17T10:22:20.421Z,49.28
2019-05-17T10:24:51.944Z,48.93
2019-05-17T10:27:23.308Z,49.32
2019-05-17T10:29:54.703Z,49.54
2019-05-17T10:32:26.178Z,49.06
2019-05-17T10:35:00.119Z,49.19
2019-05-17T10:37:30.361Z,48.14
2019-05-17T10:40:01.724Z,48.17
2019-05-17T10:42:33.361Z,47.84
2019-05-17T10:45:07.672Z,47.20
2019-05-17T10:47:39.595Z,46.82
2019-05-17T10:50:11.665Z,46.42
2019-05-17T10:52:43.165Z,46.58
2019-05-17T10:55:14.671Z,45.80
2019-05-17T10:57:46.131Z,46.20
2019-05-17T11:00:19.710Z,46.37
2019-05-17T11:02:51.314Z,46.40
2019-05-17T11:05:22.737Z,46.15
2019-05-17T11:07:54.809Z,46.03
2019-05-17T11:10:26.293Z,46.52
2019-05-17T11:12:57.653Z,46.32
2019-05-17T11:15:29.099Z,45.54
2019-05-17T11:18:00.531Z,45.71
2019-05-17T11:20:32.062Z,45.40
2019-05-17T11:23:03.407Z,45.74
2019-05-17T11:25:34.825Z,45.58
2019-05-17T11:28:06.206Z,45.77
2019-05-17T11:30:37.595Z,45.60
2019-05-17T11:33:09.126Z,45.36
2019-05-17T11:35:40.499Z,45.60
2019-05-17T11:38:11.864Z,45.69
2019-05-17T11:40:43.164Z,46.21
2019-05-17T11:43:14.462Z,45.94
2019-05-17T11:45:47.131Z,45.73
2019-05-17T11:48:18.680Z,45.78
2019-05-17T11:50:49.969Z,44.96
2019-05-17T11:53:21.291Z,45.42
2019-05-17T11:55:52.644Z,45.59
2019-05-17T11:58:23.936Z,45.57
2019-05-17T12:00:55.556Z,45.27
2019-05-17T12:03:26.760Z,44.67
2019-05-17T12:06:01.119Z,44.66
2019-05-17T12:08:32.523Z,44.92
2019-05-17T12:11:04.192Z,45.33
2019-05-17T12:13:35.585Z,45.53
2019-05-17T12:16:07.093Z,45.52
2019-05-17T12:18:39.904Z,46.35
2019-05-17T12:21:11.334Z,45.29
2019-05-17T12:23:42.859Z,45.49
2019-05-17T12:26:14.413Z,45.10
2019-05-17T12:28:46.056Z,44.22
2019-05-17T12:31:17.551Z,44.34
2019-05-17T12:33:48.993Z,44.63
2019-05-17T12:36:20.624Z,45.04
2019-05-17T12:38:52.189Z,45.47
2019-05-17T12:41:24.955Z,44.66
2019-05-17T12:43:55.869Z,45.76
2019-05-17T12:46:26.909Z,45.18
2019-05-17T12:48:58.392Z,45.75
2019-05-17T12:51:32.871Z,45.07
2019-05-17T12:54:03.882Z,44.65
2019-05-17T12:56:35.253Z,45.17
2019-05-17T12:59:07.052Z,45.39
2019-05-17T13:01:38.372Z,45.60
2019-05-17T13:04:09.707Z,45.80
2019-05-17T13:06:41.026Z,45.19
2019-05-17T13:09:12.405Z,45.31
2019-05-17T13:11:43.907Z,45.01
2019-05-17T13:14:15.373Z,44.53
2019-05-17T13:16:46.943Z,44.51
2019-05-17T13:19:18.393Z,43.85
2019-05-17T13:21:49.906Z,44.00
2019-05-17T13:24:21.292Z,44.00
2019-05-17T13:26:53.030Z,44.12
2019-05-17T13:29:24.415Z,44.48
2019-05-17T13:31:55.941Z,44.30
2019-05-17T13:34:27.505Z,44.90
2019-05-17T13:36:58.824Z,45.44
2019-05-17T13:39:30.128Z,45.60
2019-05-17T13:42:01.583Z,45.92
2019-05-17T13:44:32.974Z,45.66
2019-05-17T13:47:04.772Z,46.14
2019-05-17T13:49:36.182Z,46.46
2019-05-17T13:52:07.660Z,46.26
2019-05-17T13:54:39.170Z,46.22
2019-05-17T13:57:11.541Z,45.38
2019-05-17T13:59:45.272Z,45.28
2019-05-17T14:02:17.569Z,45.02
2019-05-17T14:04:48.820Z,44.87
2019-05-17T14:07:20.181Z,44.61
2019-05-17T14:09:51.487Z,44.72
2019-05-17T14:12:23.046Z,45.83
2019-05-17T14:14:54.297Z,45.79
2019-05-17T14:17:25.539Z,45.77
2019-05-17T14:19:57.093Z,46.02
2019-05-17T14:22:28.658Z,45.58
2019-05-17T14:24:59.836Z,44.51
2019-05-17T14:27:31.146Z,45.46
2019-05-17T14:30:02.490Z,44.65
2019-05-17T14:32:33.952Z,45.02
2019-05-17T14:35:06.239Z,45.29
2019-05-17T14:37:37.543Z,44.64
2019-05-17T14:40:08.856Z,45.49
2019-05-17T14:42:40.109Z,46.02
2019-05-17T14:45:11.797Z,45.87
2019-05-17T14:47:44.083Z,45.74
2019-05-17T14:50:15.632Z,46.07
2019-05-17T14:52:46.877Z,46.26
2019-05-17T14:55:19.235Z,46.65
2019-05-17T14:57:50.473Z,46.73
2019-05-17T15:00:21.791Z,46.98
2019-05-17T15:02:53.094Z,46.73
2019-05-17T15:05:24.431Z,47.07
2019-05-17T15:07:56.108Z,47.25
2019-05-17T15:10:27.462Z,47.26
2019-05-17T15:13:01.554Z,46.94
2019-05-17T15:15:31.201Z,46.75
2019-05-17T15:18:02.757Z,46.80
2019-05-17T15:20:34.228Z,46.70
2019-05-17T15:23:05.737Z,46.86
2019-05-17T15:25:37.092Z,46.86
2019-05-17T15:28:08.446Z,47.06
2019-05-17T15:30:39.907Z,47.60
2019-05-17T15:33:12.406Z,47.69
2019-05-17T15:35:43.695Z,47.63
2019-05-17T15:38:15.092Z,47.72
2019-05-17T15:40:46.534Z,47.79
2019-05-17T15:43:17.894Z,47.79
2019-05-17T15:45:49.311Z,47.79
2019-05-17T15:48:20.747Z,47.85
2019-05-17T15:50:52.113Z,47.64
2019-05-17T15:53:23.421Z,48.20
2019-05-17T15:55:54.766Z,48.56
2019-05-17T15:58:26.222Z,48.46
2019-05-17T16:00:57.647Z,48.71
2019-05-17T16:03:29.129Z,48.96
2019-05-17T16:06:00.637Z,49.06
2019-05-17T16:08:31.974Z,49.42
2019-05-17T16:11:03.311Z,49.67
2019-05-17T16:13:34.665Z,49.97
2019-05-17T16:16:06.034Z,50.23
2019-05-17T16:18:38.538Z,50.13
2019-05-17T16:21:09.947Z,50.31
2019-05-17T16:23:41.320Z,50.61
2019-05-17T16:26:12.624Z,50.72
2019-05-17T16:28:43.943Z,50.68
2019-05-17T16:31:15.387Z,50.91
2019-05-17T16:33:46.894Z,50.91
2019-05-17T16:36:18.348Z,51.50
2019-05-17T16:38:49.729Z,51.46
2019-05-17T16:41:22.170Z,51.86
2019-05-17T16:43:53.342Z,51.60
2019-05-17T16:46:24.947Z,52.12
2019-05-17T16:48:56.390Z,52.15
2019-05-17T16:51:27.956Z,52.01
2019-05-17T16:54:00.442Z,52.03
2019-05-17T16:56:31.907Z,52.11
2019-05-17T16:59:03.263Z,52.34
2019-05-17T17:01:34.814Z,52.47
2019-05-17T17:04:06.220Z,52.43
2019-05-17T17:06:37.850Z,52.42
2019-05-17T17:09:09.327Z,52.64
2019-05-17T17:11:40.803Z,52.81
2019-05-17T17:14:12.253Z,52.79
2019-05-17T17:16:43.619Z,52.54
2019-05-17T17:19:15.016Z,53.10
2019-05-17T17:21:46.324Z,53.04
2019-05-17T17:24:17.868Z,53.14
2019-05-17T17:26:49.245Z,53.36
2019-05-17T17:29:20.787Z,53.44
2019-05-17T17:31:52.141Z,53.33
2019-05-17T17:34:23.475Z,52.99
2019-05-17T17:36:55.078Z,52.41
2019-05-17T17:39:26.380Z,53.20
2019-05-17T17:41:57.811Z,53.12
2019-05-17T17:44:29.177Z,52.89
2019-05-17T17:47:00.654Z,53.51
2019-05-17T17:49:31.995Z,53.69
2019-05-17T17:52:03.423Z,53.87
2019-05-17T17:54:34.770Z,54.05
2019-05-17T17:57:06.226Z,53.93
2019-05-17T17:59:37.661Z,54.19
2019-05-17T18:02:09.215Z,54.30
2019-05-17T18:04:40.393Z,54.39
2019-05-17T18:07:11.772Z,54.42
2019-05-17T18:09:43.099Z,54.30
2019-05-17T18:12:14.429Z,54.52
2019-05-17T18:14:45.857Z,54.53
2019-05-17T18:17:17.205Z,54.67
2019-05-17T18:19:48.680Z,54.64
2019-05-17T18:22:20.108Z,54.99
2019-05-17T18:24:51.553Z,54.75
2019-05-17T18:27:23.038Z,54.96
2019-05-17T18:29:54.503Z,54.89
2019-05-17T18:32:25.805Z,55.12
2019-05-17T18:34:57.113Z,55.24
2019-05-17T18:37:28.575Z,55.54
2019-05-17T18:40:00.045Z,55.58
2019-05-17T18:42:32.065Z,55.73
2019-05-17T18:45:04.229Z,56.02
2019-05-17T18:47:35.574Z,56.37
2019-05-17T18:50:07.506Z,56.16
2019-05-17T18:52:39.113Z,56.15
2019-05-17T18:55:11.271Z,56.36
2019-05-17T18:57:42.764Z,56.18
2019-05-17T19:00:15.267Z,56.19
2019-05-17T19:02:46.741Z,56.76
2019-05-17T19:05:18.156Z,56.84
2019-05-17T19:07:49.620Z,57.06
2019-05-17T19:10:21.128Z,57.57
2019-05-17T19:12:52.497Z,57.78
2019-05-17T19:15:24.085Z,58.18
2019-05-17T19:17:55.438Z,58.30
2019-05-17T19:20:26.931Z,58.28
2019-05-17T19:22:58.622Z,58.60
2019-05-17T19:25:29.975Z,58.67
2019-05-17T19:28:01.560Z,58.70
2019-05-17T19:30:33.048Z,58.64
2019-05-17T19:33:04.574Z,58.66
2019-05-17T19:35:35.799Z,58.73
2019-05-17T19:38:07.109Z,58.96
2019-05-17T19:40:38.441Z,58.74
2019-05-17T19:43:09.917Z,58.98
2019-05-17T19:45:41.799Z,58.94
2019-05-17T19:48:14.286Z,59.10
2019-05-17T19:50:45.748Z,59.16
2019-05-17T19:53:17.076Z,59.13
2019-05-17T19:55:48.377Z,59.17
2019-05-17T19:58:19.913Z,59.13
2019-05-17T20:00:51.316Z,59.11
2019-05-17T20:03:22.825Z,59.18
2019-05-17T20:05:54.174Z,59.48
2019-05-17T20:08:26.761Z,59.83
2019-05-17T20:10:58.151Z,60.08
2019-05-17T20:13:29.616Z,59.70
2019-05-17T20:16:01.154Z,59.72
2019-05-17T20:18:32.837Z,59.77
2019-05-17T20:21:04.386Z,59.59
2019-05-17T20:23:36.759Z,60.05
2019-05-17T20:26:08.237Z,59.80
2019-05-17T20:28:39.739Z,59.92
2019-05-17T20:31:11.136Z,60.14
2019-05-17T20:33:42.664Z,60.10
2019-05-17T20:36:14.109Z,60.22
2019-05-17T20:38:45.387Z,60.45
2019-05-17T20:41:16.976Z,60.64
2019-05-17T20:43:48.925Z,60.70
2019-05-17T20:46:20.544Z,60.84
2019-05-17T20:48:52.076Z,60.83
2019-05-17T20:51:24.553Z,60.88
2019-05-17T20:53:55.922Z,60.94
2019-05-17T20:56:32.844Z,61.14
2019-05-17T20:59:00.030Z,61.13
2019-05-17T21:01:31.072Z,61.31
2019-05-17T21:04:02.360Z,61.51
2019-05-17T21:06:33.673Z,61.57
2019-05-17T21:09:06.697Z,61.82
2019-05-17T21:11:37.869Z,61.93
2019-05-17T21:14:09.139Z,61.92
2019-05-17T21:16:40.447Z,61.92
2019-05-17T21:19:11.651Z,62.02
2019-05-17T21:21:43.126Z,62.32
2019-05-17T21:24:14.317Z,62.62
2019-05-17T21:26:45.665Z,62.43
2019-05-17T21:29:16.863Z,62.29
2019-05-17T21:31:48.067Z,62.58
2019-05-17T21:34:19.369Z,62.48
2019-05-17T21:36:51.729Z,62.40
2019-05-17T21:39:23.024Z,62.30
2019-05-17T21:41:54.235Z,62.61
2019-05-17T21:44:25.459Z,62.69
2019-05-17T21:47:04.588Z,62.89
2019-05-17T21:49:30.949Z,63.12
2019-05-17T21:52:02.247Z,63.27
2019-05-17T21:54:33.613Z,62.87
2019-05-17T21:57:05.011Z,63.21
2019-05-17T21:59:36.204Z,63.39
2019-05-17T22:02:07.617Z,63.35
2019-05-17T22:04:39.102Z,63.17
2019-05-17T22:07:10.681Z,63.17
2019-05-17T22:09:42.135Z,63.23
2019-05-17T22:12:14.697Z,63.36
2019-05-17T22:14:45.902Z,63.52
2019-05-17T22:17:17.257Z,63.61
2019-05-17T22:19:48.601Z,63.48
2019-05-17T22:22:19.904Z,63.72
2019-05-17T22:24:51.149Z,63.69
2019-05-17T22:27:22.614Z,63.30
2019-05-17T22:29:53.902Z,63.66
2019-05-17T22:32:25.314Z,63.82
2019-05-17T22:34:56.686Z,63.78
2019-05-17T22:37:28.197Z,63.71
2019-05-17T22:39:59.498Z,63.88
2019-05-17T22:42:30.909Z,64.13
2019-05-17T22:45:02.155Z,63.73
2019-05-17T22:47:34.747Z,63.58
2019-05-17T22:50:06.449Z,63.38
2019-05-17T22:52:37.843Z,63.56
2019-05-17T22:55:09.770Z,63.58
2019-05-17T22:57:41.245Z,63.46
2019-05-17T23:00:13.144Z,63.51
2019-05-17T23:02:45.030Z,63.40
2019-05-17T23:05:16.411Z,63.23
2019-05-17T23:07:47.817Z,63.54
2019-05-17T23:10:19.152Z,63.53
2019-05-17T23:12:51.439Z,63.73
2019-05-17T23:15:22.871Z,63.97
2019-05-17T23:17:54.092Z,63.56
2019-05-17T23:20:25.418Z,63.20
2019-05-17T23:22:56.926Z,63.87
2019-05-17T23:25:28.389Z,63.71
2019-05-17T23:27:59.583Z,63.65
2019-05-17T23:30:30.800Z,63.60
2019-05-17T23:33:02.251Z,64.18
2019-05-17T23:35:33.417Z,63.81
2019-05-17T23:38:04.619Z,63.85
2019-05-17T23:40:35.796Z,63.76
2019-05-17T23:43:07.116Z,63.41
2019-05-17T23:45:38.371Z,63.66
2019-05-17T23:48:09.665Z,63.74
2019-05-17T23:50:41.153Z,63.77
2019-05-17T23:53:12.343Z,63.93
2019-05-17T23:55:43.470Z,63.81
2019-05-17T23:58:15.917Z,63.97
